createdAt,value
2019-02-21T00:01:46.747Z,19.10
2019-02-21T00:04:13.401Z,15.30
2019-02-21T00:06:40.071Z,15.97
2019-02-21T00:09:07.154Z,13.50
2019-02-21T00:11:33.935Z,13.83
2019-02-21T00:14:00.786Z,17.13
2019-02-21T00:16:27.445Z,18.63
2019-02-21T00:18:54.109Z,12.53
2019-02-21T00:21:20.781Z,12.57
2019-02-21T00:23:47.413Z,13.17
2019-02-21T00:26:14.035Z,14.43
2019-02-21T00:28:40.816Z,16.03
2019-02-21T00:31:07.454Z,16.40
2019-02-21T00:33:34.149Z,13.83
2019-02-21T00:36:00.806Z,13.20
2019-02-21T00:38:27.507Z,14.83
2019-02-21T00:40:54.224Z,15.50
2019-02-21T00:43:20.921Z,15.20
2019-02-21T00:45:47.588Z,13.73
2019-02-21T00:48:14.273Z,17.27
2019-02-21T00:50:41.082Z,13.53
2019-02-21T00:53:07.822Z,15.93
2019-02-21T00:55:34.486Z,12.33
2019-02-21T00:58:01.206Z,20.53
2019-02-21T01:00:27.931Z,14.10
2019-02-21T01:02:54.584Z,13.77
2019-02-21T01:05:21.355Z,17.00
2019-02-21T01:07:47.995Z,20.10
2019-02-21T01:10:14.711Z,16.30
2019-02-21T01:12:41.430Z,22.10
2019-02-21T01:15:08.769Z,15.00
2019-02-21T01:17:35.561Z,18.30
2019-02-21T01:20:03.297Z,15.73
2019-02-21T01:22:30.109Z,12.67
2019-02-21T01:24:56.778Z,15.17
2019-02-21T01:27:23.573Z,14.00
2019-02-21T01:29:50.326Z,12.70
2019-02-21T01:32:17.010Z,14.60
2019-02-21T01:34:43.725Z,17.83
2019-02-21T01:37:10.373Z,14.90
2019-02-21T01:39:37.147Z,15.87
2019-02-21T01:42:03.789Z,19.03
2019-02-21T01:44:30.483Z,16.63
2019-02-21T01:46:57.127Z,17.63
2019-02-21T01:49:23.819Z,13.90
2019-02-21T01:51:50.440Z,20.00
2019-02-21T01:54:17.155Z,13.33
2019-02-21T01:56:43.789Z,15.80
2019-02-21T01:59:10.457Z,24.23
2019-02-21T02:01:37.199Z,15.30
2019-02-21T02:04:03.935Z,19.53
2019-02-21T02:06:30.697Z,14.50
2019-02-21T02:08:57.350Z,17.07
2019-02-21T02:11:24.175Z,17.77
2019-02-21T02:13:50.812Z,13.67
2019-02-21T02:16:17.595Z,16.33
2019-02-21T02:18:44.224Z,14.83
2019-02-21T02:21:11.349Z,17.67
2019-02-21T02:23:38.014Z,14.33
2019-02-21T02:26:04.653Z,17.00
2019-02-21T02:28:31.438Z,22.83
2019-02-21T02:33:32.066Z,19.23
2019-02-21T02:35:59.038Z,17.67
2019-02-21T02:38:25.724Z,16.43
2019-02-21T02:40:52.361Z,16.73
2019-02-21T02:43:19.030Z,22.53
2019-02-21T02:45:45.771Z,19.43
2019-02-21T02:48:12.668Z,18.40
2019-02-21T02:50:39.297Z,22.90
2019-02-21T02:53:05.983Z,17.57
2019-02-21T02:55:32.621Z,17.10
2019-02-21T02:57:59.352Z,20.37
2019-02-21T03:00:26.124Z,20.73
2019-02-21T03:02:52.867Z,16.70
2019-02-21T03:05:19.532Z,20.80
2019-02-21T03:07:46.210Z,21.37
2019-02-21T03:10:13.485Z,21.07
2019-02-21T03:12:40.245Z,15.57
2019-02-21T03:15:07.210Z,19.00
2019-02-21T03:17:33.845Z,22.70
2019-02-21T03:20:00.546Z,18.40
2019-02-21T03:22:27.195Z,20.90
2019-02-21T03:24:53.854Z,19.93
2019-02-21T03:27:20.538Z,33.73
2019-02-21T03:29:47.379Z,21.30
2019-02-21T03:32:14.054Z,20.23
2019-02-21T03:34:40.695Z,22.10
2019-02-21T03:37:07.589Z,19.93
2019-02-21T03:39:34.476Z,19.10
2019-02-21T03:42:01.134Z,19.53
2019-02-21T03:44:27.874Z,26.50
2019-02-21T03:46:54.645Z,17.20
2019-02-21T03:49:21.384Z,19.13
2019-02-21T03:51:48.006Z,16.27
2019-02-21T03:54:14.788Z,19.90
2019-02-21T03:56:41.551Z,19.10
2019-02-21T03:59:08.202Z,19.17
2019-02-21T04:01:34.860Z,21.97
2019-02-21T04:04:01.518Z,19.87
2019-02-21T04:06:28.242Z,26.87
2019-02-21T04:08:54.898Z,22.00
2019-02-21T04:11:21.665Z,19.63
2019-02-21T04:13:48.439Z,24.20
2019-02-21T04:16:15.202Z,21.83
2019-02-21T04:18:41.946Z,21.20
2019-02-21T04:21:08.630Z,24.53
2019-02-21T04:23:35.297Z,16.30
2019-02-21T04:26:02.063Z,24.37
2019-02-21T04:28:28.837Z,18.77
2019-02-21T04:30:55.600Z,27.00
2019-02-21T04:33:22.290Z,23.70
2019-02-21T04:35:48.905Z,20.30
2019-02-21T04:38:15.689Z,22.80
2019-02-21T04:40:42.451Z,20.90
2019-02-21T04:43:09.238Z,16.60
2019-02-21T04:45:35.893Z,16.67
2019-02-21T04:48:02.586Z,18.80
2019-02-21T04:50:29.410Z,25.63
2019-02-21T04:52:56.038Z,20.90
2019-02-21T04:55:22.827Z,25.90
2019-02-21T04:57:49.457Z,19.60
2019-02-21T05:00:16.174Z,22.20
2019-02-21T05:02:42.862Z,19.37
2019-02-21T05:05:09.700Z,22.20
2019-02-21T05:07:36.458Z,23.83
2019-02-21T05:10:04.795Z,22.97
2019-02-21T05:12:31.457Z,25.30
2019-02-21T05:14:58.127Z,18.20
2019-02-21T05:17:24.788Z,29.20
2019-02-21T05:19:51.436Z,19.40
2019-02-21T05:22:18.089Z,23.80
2019-02-21T05:24:44.830Z,21.43
2019-02-21T05:27:13.401Z,17.80
2019-02-21T05:29:40.155Z,22.30
2019-02-21T05:32:20.855Z,23.10
2019-02-21T05:34:49.471Z,22.63
2019-02-21T05:37:18.056Z,19.37
2019-02-21T05:40:03.769Z,19.53
2019-02-21T05:42:47.607Z,26.07
2019-02-21T05:45:28.243Z,21.20
2019-02-21T05:48:11.926Z,31.67
2019-02-21T05:50:43.153Z,20.70
2019-02-21T05:53:14.534Z,20.90
2019-02-21T05:55:43.103Z,26.60
2019-02-21T05:58:12.748Z,21.90
2019-02-21T06:00:47.442Z,25.40
2019-02-21T06:03:19.063Z,21.30
2019-02-21T06:05:47.642Z,25.47
2019-02-21T06:08:19.083Z,25.63
2019-02-21T06:10:47.622Z,28.37
2019-02-21T06:13:16.199Z,24.90
2019-02-21T06:15:59.837Z,19.53
2019-02-21T06:18:29.152Z,20.20
2019-02-21T06:21:00.585Z,21.10
2019-02-21T06:23:29.123Z,21.67
2019-02-21T06:26:00.519Z,21.33
2019-02-21T06:28:35.042Z,20.80
2019-02-21T06:31:03.620Z,24.47
2019-02-21T06:33:30.315Z,25.47
2019-02-21T06:35:57.127Z,25.37
2019-02-21T06:38:23.893Z,19.93
2019-02-21T06:40:50.548Z,22.27
2019-02-21T06:43:17.201Z,24.03
2019-02-21T06:45:43.879Z,21.33
2019-02-21T06:48:10.531Z,18.53
2019-02-21T06:50:37.328Z,20.83
2019-02-21T06:53:04.094Z,24.40
2019-02-21T06:55:30.755Z,21.93
2019-02-21T06:57:57.459Z,22.63
2019-02-21T07:00:24.104Z,21.90
2019-02-21T07:02:50.957Z,27.63
2019-02-21T07:05:17.752Z,29.07
2019-02-21T07:07:44.471Z,24.83
2019-02-21T07:10:11.218Z,24.93
2019-02-21T07:12:37.859Z,31.07
2019-02-21T07:15:07.450Z,25.37
2019-02-21T07:17:34.229Z,23.27
2019-02-21T07:20:00.942Z,26.20
2019-02-21T07:22:27.590Z,24.27
2019-02-21T07:24:56.135Z,28.07
2019-02-21T07:27:22.852Z,28.70
2019-02-21T07:29:49.580Z,26.67
2019-02-21T07:32:16.289Z,29.53
2019-02-21T07:34:43.015Z,30.07
2019-02-21T07:37:18.041Z,32.33
2019-02-21T07:39:38.358Z,24.77
2019-02-21T07:42:05.172Z,31.10
2019-02-21T07:44:31.980Z,29.03
2019-02-21T07:46:58.627Z,30.77
2019-02-21T07:49:25.834Z,27.00
2019-02-21T07:51:52.822Z,29.47
2019-02-21T07:54:19.492Z,28.83
2019-02-21T07:56:46.188Z,24.40
2019-02-21T07:59:12.963Z,32.47
2019-02-21T08:01:39.621Z,34.93
2019-02-21T08:04:06.374Z,31.03
2019-02-21T08:06:33.042Z,32.80
2019-02-21T08:08:59.728Z,29.37
2019-02-21T08:11:26.452Z,28.77
2019-02-21T08:13:53.310Z,25.00
2019-02-21T08:16:20.006Z,32.10
2019-02-21T08:18:46.747Z,28.10
2019-02-21T08:21:13.435Z,28.03
2019-02-21T08:23:49.994Z,24.87
2019-02-21T08:26:08.935Z,28.20
2019-02-21T08:28:35.562Z,33.07
2019-02-21T08:31:02.262Z,36.90
2019-02-21T08:33:30.867Z,32.67
2019-02-21T08:35:58.022Z,34.40
2019-02-21T08:38:24.801Z,28.33
2019-02-21T08:40:53.283Z,31.77
2019-02-21T08:43:20.131Z,34.73
2019-02-21T08:45:46.766Z,31.77
2019-02-21T08:48:13.655Z,29.93
2019-02-21T08:50:40.561Z,33.50
2019-02-21T08:53:07.260Z,35.47
2019-02-21T08:55:33.999Z,37.83
2019-02-21T08:58:00.804Z,34.13
2019-02-21T09:00:27.538Z,28.47
2019-02-21T09:02:54.218Z,33.03
2019-02-21T09:05:21.254Z,25.40
2019-02-21T09:07:47.926Z,36.03
2019-02-21T09:10:14.750Z,34.77
2019-02-21T09:12:41.634Z,30.43
2019-02-21T09:15:14.114Z,33.20
2019-02-21T09:17:40.902Z,26.43
2019-02-21T09:20:08.970Z,31.40
2019-02-21T09:22:35.645Z,32.60
2019-02-21T09:25:03.147Z,28.60
2019-02-21T09:27:29.830Z,39.70
2019-02-21T09:29:56.494Z,37.63
2019-02-21T09:32:23.247Z,33.23
2019-02-21T09:34:50.396Z,27.57
2019-02-21T09:37:17.205Z,33.60
2019-02-21T09:39:43.893Z,30.70
2019-02-21T09:42:10.653Z,31.50
2019-02-21T09:44:37.297Z,28.20
2019-02-21T09:47:03.966Z,28.67
2019-02-21T09:49:30.751Z,33.00
2019-02-21T09:51:57.477Z,28.97
2019-02-21T09:54:24.216Z,34.30
2019-02-21T09:56:53.013Z,33.57
2019-02-21T09:59:19.381Z,31.80
2019-02-21T10:01:46.045Z,29.30
2019-02-21T10:04:12.696Z,28.17
2019-02-21T10:06:39.360Z,29.37
2019-02-21T10:09:06.001Z,29.10
2019-02-21T10:11:32.801Z,28.03
2019-02-21T10:13:59.422Z,24.97
2019-02-21T10:16:26.189Z,22.80
2019-02-21T10:18:52.823Z,26.23
2019-02-21T10:21:19.482Z,26.10
2019-02-21T10:23:46.287Z,27.87
2019-02-21T10:26:12.909Z,28.17
2019-02-21T10:28:39.689Z,25.40
2019-02-21T10:31:06.443Z,24.73
2019-02-21T10:33:33.114Z,23.17
2019-02-21T10:36:00.599Z,25.80
2019-02-21T10:38:27.553Z,27.27
2019-02-21T10:40:54.253Z,24.37
2019-02-21T10:43:20.874Z,24.57
2019-02-21T10:45:48.333Z,29.20
2019-02-21T10:48:14.989Z,24.40
2019-02-21T10:50:41.757Z,26.57
2019-02-21T10:53:08.390Z,23.73
2019-02-21T10:55:35.097Z,22.67
2019-02-21T10:58:01.746Z,24.53
2019-02-21T11:00:29.714Z,28.63
2019-02-21T11:02:56.596Z,24.70
2019-02-21T11:05:23.233Z,25.33
2019-02-21T11:07:50.027Z,26.13
2019-02-21T11:10:26.247Z,20.57
2019-02-21T11:12:53.047Z,23.73
2019-02-21T11:15:24.349Z,25.43
2019-02-21T11:17:51.048Z,26.17
2019-02-21T11:20:18.179Z,26.43
2019-02-21T11:22:44.966Z,28.87
2019-02-21T11:25:11.594Z,25.97
2019-02-21T11:27:38.379Z,26.07
2019-02-21T11:30:11.754Z,25.23
2019-02-21T11:32:38.547Z,20.27
2019-02-21T11:35:06.933Z,31.13
2019-02-21T11:37:42.940Z,32.00
2019-02-21T11:40:05.389Z,28.77
2019-02-21T11:42:31.201Z,24.43
2019-02-21T11:44:57.891Z,26.00
2019-02-21T11:47:24.618Z,27.77
2019-02-21T11:49:51.258Z,27.17
2019-02-21T11:52:18.065Z,26.70
2019-02-21T11:54:44.874Z,22.80
2019-02-21T11:57:11.560Z,25.30
2019-02-21T11:59:38.186Z,31.73
2019-02-21T12:02:04.878Z,29.67
2019-02-21T12:04:31.611Z,23.20
2019-02-21T12:06:58.303Z,27.40
2019-02-21T12:09:25.066Z,29.33
2019-02-21T12:11:51.763Z,21.13
2019-02-21T12:14:18.403Z,21.90
2019-02-21T12:16:45.046Z,18.80
2019-02-21T12:19:11.710Z,21.00
2019-02-21T12:21:38.382Z,20.03
2019-02-21T12:24:05.149Z,24.47
2019-02-21T12:26:31.883Z,25.17
2019-02-21T12:28:58.670Z,22.23
2019-02-21T12:31:25.489Z,18.30
2019-02-21T12:33:52.158Z,22.43
2019-02-21T12:36:18.838Z,15.60
2019-02-21T12:38:45.834Z,20.47
2019-02-21T12:41:12.637Z,19.67
2019-02-21T12:43:39.338Z,17.57
2019-02-21T12:46:06.036Z,15.73
2019-02-21T12:48:32.782Z,14.47
2019-02-21T12:50:59.578Z,20.57
2019-02-21T12:53:28.203Z,15.37
2019-02-21T12:55:54.706Z,17.20
2019-02-21T12:58:21.476Z,17.50
2019-02-21T13:00:48.113Z,15.30
2019-02-21T13:03:14.793Z,17.30
2019-02-21T13:05:42.636Z,16.83
2019-02-21T13:08:09.971Z,19.47
2019-02-21T13:10:36.822Z,15.50
2019-02-21T13:13:03.712Z,14.90
2019-02-21T13:15:30.456Z,15.50
2019-02-21T13:17:57.157Z,21.53
2019-02-21T13:20:23.958Z,17.17
2019-02-21T13:22:50.677Z,15.67
2019-02-21T13:25:18.099Z,16.03
2019-02-21T13:27:44.711Z,15.67
2019-02-21T13:30:14.252Z,15.20
2019-02-21T13:32:41.036Z,18.67
2019-02-21T13:35:08.724Z,16.27
2019-02-21T13:37:35.544Z,18.63
2019-02-21T13:40:04.573Z,24.87
2019-02-21T13:42:31.306Z,15.10
2019-02-21T13:44:58.150Z,17.30
2019-02-21T13:47:24.954Z,24.50
2019-02-21T13:49:51.712Z,33.07
2019-02-21T13:52:18.474Z,22.43
2019-02-21T13:54:45.165Z,17.90
2019-02-21T13:57:11.938Z,16.27
2019-02-21T13:59:38.618Z,17.60
2019-02-21T14:02:05.598Z,17.30
2019-02-21T14:04:32.244Z,25.03
2019-02-21T14:06:58.910Z,26.67
2019-02-21T14:09:25.651Z,18.37
2019-02-21T14:11:52.430Z,19.03
2019-02-21T14:14:19.093Z,18.63
2019-02-21T14:16:46.820Z,19.90
2019-02-21T14:19:13.634Z,18.80
2019-02-21T14:21:40.374Z,21.00
2019-02-21T14:24:07.070Z,15.70
2019-02-21T14:26:33.722Z,19.87
2019-02-21T14:29:00.528Z,22.20
2019-02-21T14:31:27.312Z,27.70
2019-02-21T14:33:54.102Z,20.37
2019-02-21T14:36:20.900Z,30.03
2019-02-21T14:38:47.570Z,23.30
2019-02-21T14:41:14.199Z,24.37
2019-02-21T14:43:40.996Z,22.10
2019-02-21T14:46:07.729Z,21.63
2019-02-21T14:48:34.523Z,24.67
2019-02-21T14:51:01.280Z,18.90
2019-02-21T14:53:28.050Z,20.03
2019-02-21T14:55:54.737Z,25.13
2019-02-21T14:58:21.384Z,22.97
2019-02-21T15:00:48.176Z,21.20
2019-02-21T15:03:21.965Z,19.70
2019-02-21T15:05:43.307Z,23.03
2019-02-21T15:08:10.049Z,19.87
2019-02-21T15:10:36.734Z,23.40
2019-02-21T15:13:03.494Z,25.80
2019-02-21T15:15:30.231Z,31.27
2019-02-21T15:18:06.964Z,28.73
2019-02-21T15:20:35.837Z,25.70
2019-02-21T15:22:54.122Z,22.63
2019-02-21T15:25:20.833Z,22.57
2019-02-21T15:27:47.623Z,24.63
2019-02-21T15:30:20.099Z,23.87
2019-02-21T15:32:47.307Z,21.83
2019-02-21T15:35:14.063Z,29.60
2019-02-21T15:37:40.909Z,21.90
2019-02-21T15:40:09.042Z,25.63
2019-02-21T15:42:35.803Z,25.53
2019-02-21T15:45:09.640Z,25.00
2019-02-21T15:47:36.139Z,27.80
2019-02-21T15:50:05.423Z,21.80
2019-02-21T15:52:32.306Z,24.83
2019-02-21T15:55:11.334Z,23.17
2019-02-21T15:57:28.542Z,22.57
2019-02-21T15:59:55.169Z,24.03
2019-02-21T16:02:21.901Z,28.23
2019-02-21T16:04:48.598Z,22.87
2019-02-21T16:07:15.324Z,23.83
2019-02-21T16:09:42.087Z,29.60
2019-02-21T16:12:09.155Z,20.73
2019-02-21T16:14:37.697Z,28.23
2019-02-21T16:17:04.524Z,25.63
2019-02-21T16:19:31.265Z,20.90
2019-02-21T16:21:58.010Z,30.20
2019-02-21T16:24:24.785Z,32.27
2019-02-21T16:26:51.530Z,28.33
2019-02-21T16:29:18.223Z,31.10
2019-02-21T16:31:44.914Z,34.97
2019-02-21T16:34:11.818Z,27.87
2019-02-21T16:36:38.578Z,28.23
2019-02-21T16:39:05.347Z,26.50
2019-02-21T16:41:36.416Z,29.23
2019-02-21T16:44:00.623Z,34.80
2019-02-21T16:46:27.292Z,32.03
2019-02-21T16:48:53.986Z,28.83
2019-02-21T16:51:22.239Z,28.47
2019-02-21T16:54:01.735Z,29.97
2019-02-21T16:56:28.826Z,28.77
2019-02-21T16:58:55.573Z,29.00
2019-02-21T17:01:22.259Z,32.50
2019-02-21T17:03:48.913Z,32.97
2019-02-21T17:06:15.716Z,27.77
2019-02-21T17:08:42.354Z,29.97
2019-02-21T17:11:09.155Z,31.07
2019-02-21T17:13:35.790Z,24.60
2019-02-21T17:16:02.446Z,31.97
2019-02-21T17:18:29.212Z,31.83
2019-02-21T17:20:57.767Z,33.17
2019-02-21T17:23:24.528Z,31.57
2019-02-21T17:25:51.195Z,32.20
2019-02-21T17:28:17.883Z,26.87
2019-02-21T17:30:44.589Z,27.70
2019-02-21T17:33:11.297Z,32.83
2019-02-21T17:35:37.973Z,25.60
2019-02-21T17:38:04.637Z,32.80
2019-02-21T17:40:31.349Z,39.20
2019-02-21T17:42:58.130Z,29.53
2019-02-21T17:45:24.803Z,28.40
2019-02-21T17:47:51.585Z,29.10
2019-02-21T17:50:19.046Z,28.50
2019-02-21T17:52:45.694Z,29.27
2019-02-21T17:55:13.350Z,35.37
2019-02-21T17:57:40.119Z,31.17
2019-02-21T18:00:10.542Z,30.67
2019-02-21T18:02:37.301Z,28.90
2019-02-21T18:05:05.962Z,40.67
2019-02-21T18:07:36.353Z,33.53
2019-02-21T18:10:01.203Z,31.70
2019-02-21T18:12:27.820Z,30.23
2019-02-21T18:14:54.514Z,28.07
2019-02-21T18:17:21.246Z,31.67
2019-02-21T18:19:47.916Z,33.90
2019-02-21T18:22:14.545Z,38.93
2019-02-21T18:24:41.222Z,33.27
2019-02-21T18:27:07.845Z,29.33
2019-02-21T18:29:34.526Z,38.43
2019-02-21T18:32:01.300Z,30.60
2019-02-21T18:34:28.036Z,32.00
2019-02-21T18:36:54.821Z,26.43
2019-02-21T18:39:21.685Z,29.33
2019-02-21T18:41:48.386Z,32.77
2019-02-21T18:44:15.025Z,32.40
2019-02-21T18:46:41.858Z,33.37
2019-02-21T18:49:08.521Z,22.57
2019-02-21T18:51:35.313Z,31.63
2019-02-21T18:54:02.011Z,32.30
2019-02-21T18:56:28.648Z,39.23
2019-02-21T18:58:55.348Z,27.63
2019-02-21T19:01:22.059Z,32.93
2019-02-21T19:03:48.732Z,30.90
2019-02-21T19:06:15.401Z,35.33
2019-02-21T19:08:42.177Z,32.77
2019-02-21T19:11:08.934Z,31.87
2019-02-21T19:13:35.609Z,30.10
2019-02-21T19:16:02.347Z,27.40
2019-02-21T19:18:29.034Z,30.43
2019-02-21T19:20:55.693Z,32.53
2019-02-21T19:23:22.388Z,33.27
2019-02-21T19:25:49.086Z,24.43
2019-02-21T19:28:15.903Z,23.13
2019-02-21T19:30:46.517Z,23.07
2019-02-21T19:33:13.204Z,19.63
2019-02-21T19:35:39.872Z,25.70
2019-02-21T19:38:10.609Z,17.63
2019-02-21T19:40:35.139Z,20.63
2019-02-21T19:43:02.441Z,17.03
2019-02-21T19:45:30.050Z,22.40
2019-02-21T19:47:57.164Z,21.43
2019-02-21T19:50:24.352Z,19.97
2019-02-21T19:52:51.492Z,20.93
2019-02-21T19:55:18.497Z,20.23
2019-02-21T19:57:45.575Z,21.30
2019-02-21T20:00:19.973Z,25.00
2019-02-21T20:02:46.693Z,22.80
2019-02-21T20:05:13.870Z,26.43
2019-02-21T20:07:40.541Z,22.53
2019-02-21T20:10:07.893Z,24.30
2019-02-21T20:12:34.556Z,26.40
2019-02-21T20:15:01.194Z,28.90
2019-02-21T20:17:27.853Z,23.47
2019-02-21T20:19:54.498Z,28.70
2019-02-21T20:22:21.190Z,20.73
2019-02-21T20:24:47.819Z,22.30
2019-02-21T20:27:14.499Z,21.30
2019-02-21T20:29:41.130Z,22.30
2019-02-21T20:32:07.928Z,20.00
2019-02-21T20:34:34.552Z,27.80
2019-02-21T20:37:01.205Z,18.63
2019-02-21T20:39:27.934Z,23.83
2019-02-21T20:41:54.558Z,23.17
2019-02-21T20:44:21.254Z,23.40
2019-02-21T20:46:48.023Z,26.13
2019-02-21T20:49:14.717Z,20.07
2019-02-21T20:51:41.341Z,25.10
2019-02-21T20:54:08.040Z,23.27
2019-02-21T20:56:34.794Z,24.67
2019-02-21T20:59:01.482Z,32.73
2019-02-21T21:01:28.505Z,29.73
2019-02-21T21:03:55.159Z,30.87
2019-02-21T21:06:22.038Z,32.20
2019-02-21T21:08:48.713Z,30.37
2019-02-21T21:11:15.379Z,30.97
2019-02-21T21:13:44.038Z,41.10
2019-02-21T21:16:10.613Z,32.20
2019-02-21T21:18:37.337Z,33.00
2019-02-21T21:21:04.034Z,39.60
2019-02-21T21:23:30.665Z,31.90
2019-02-21T21:25:57.337Z,33.17
2019-02-21T21:28:23.973Z,34.40
2019-02-21T21:30:50.769Z,32.87
2019-02-21T21:33:17.389Z,40.70
2019-02-21T21:35:44.162Z,36.77
2019-02-21T21:38:10.929Z,38.93
2019-02-21T21:40:37.603Z,37.17
2019-02-21T21:43:04.282Z,35.83
2019-02-21T21:45:30.918Z,45.13
2019-02-21T21:47:57.590Z,48.23
2019-02-21T21:50:24.221Z,44.77
2019-02-21T21:52:51.005Z,45.07
2019-02-21T21:55:17.649Z,38.87
2019-02-21T21:57:44.318Z,49.57
2019-02-21T22:00:20.555Z,48.73
2019-02-21T22:02:47.252Z,41.57
2019-02-21T22:05:13.881Z,49.73
2019-02-21T22:07:40.519Z,48.97
2019-02-21T22:10:10.314Z,47.30
2019-02-21T22:12:36.979Z,50.83
2019-02-21T22:15:07.130Z,49.80
2019-02-21T22:17:33.776Z,55.73
2019-02-21T22:20:00.456Z,52.13
2019-02-21T22:22:27.169Z,45.43
2019-02-21T22:24:53.841Z,47.57
2019-02-21T22:27:20.474Z,51.33
2019-02-21T22:29:47.158Z,48.43
2019-02-21T22:32:13.898Z,59.53
2019-02-21T22:34:40.602Z,48.87
2019-02-21T22:37:07.233Z,50.00
2019-02-21T22:39:33.950Z,52.63
2019-02-21T22:42:00.638Z,50.53
2019-02-21T22:44:27.399Z,51.53
2019-02-21T22:46:54.052Z,47.63
2019-02-21T22:49:20.839Z,43.67
2019-02-21T22:51:47.473Z,40.93
2019-02-21T22:54:14.112Z,44.60
2019-02-21T22:56:40.881Z,41.93
2019-02-21T22:59:07.566Z,41.33
2019-02-21T23:01:34.631Z,32.57
2019-02-21T23:04:04.885Z,32.57
2019-02-21T23:06:53.038Z,33.93
2019-02-21T23:09:27.661Z,38.13
2019-02-21T23:11:49.949Z,34.63
2019-02-21T23:14:16.597Z,36.17
2019-02-21T23:16:43.268Z,35.77
2019-02-21T23:19:10.210Z,35.57
2019-02-21T23:21:37.468Z,38.73
2019-02-21T23:24:04.337Z,35.20
2019-02-21T23:26:31.150Z,35.57
2019-02-21T23:28:57.961Z,33.70
2019-02-21T23:31:24.921Z,28.93
2019-02-21T23:33:59.326Z,35.03
2019-02-21T23:36:26.282Z,30.00
2019-02-21T23:38:53.032Z,29.27
2019-02-21T23:41:19.930Z,30.97
2019-02-21T23:43:47.362Z,32.30
2019-02-21T23:46:14.317Z,29.10
2019-02-21T23:48:41.336Z,29.60
2019-02-21T23:51:08.208Z,31.13
2019-02-21T23:53:34.857Z,27.33
2019-02-21T23:56:21.600Z,29.40
2019-02-21T23:58:48.698Z,28.77
